Sulligent, Alabama
Current Conditions -  °F | °C
As of 5:15 PM on Friday 31 Oct 2014 (Local Time) from KM40 Reporting Station
Broken Clouds Broken Clouds  
Wind Chill: 57°   Ceiling: 6000
Heat Index: 57°   Visibility: 9mi
Dew Point: 43°   Wind: 21mph
Humidity: 59%   Direction: 340°NNW
Pressure: 30.1"   Gusts: 25mph
Location:  33.9°N, 88.13°W
Report Text: KM40 312215Z AUTO 34018G22KT 9SM FEW028 SCT037 BKN060 14/06 A3010 RMK AO2
Loading
Personal Weather Stations






























Interactive Weather Map
Tropical Storm Tracking
New forecast layout! Learn more

10-Day Weather Forecast

Advertisements
Track Severe Weather on mobile